Ryegate, Vermont
Current Conditions -  °F | °C
As of 6:12 PM on Wednesday 26 Nov 2014 (Local Time) from KMPV Reporting Station
Moderate Snow Moderate Snow  
Wind Chill: 20°   Ceiling: 500
Heat Index: 28°   Visibility: 0.5mi
Dew Point: 28°   Wind: 8mph
Humidity: 100%   Direction: 340°NNW
Pressure: 30.04"   Gusts: NA
Location:  44.1959°N, 72.0788°W
Report Text: KMPV 262312Z AUTO 34007KT 1/2SM SN FZFG VV005 M02/M02 A3004 RMK AO2 P0003 T10221022
Loading
Personal Weather Stations






























Interactive Weather Map New forecast layout! Learn more

10-Day Weather Forecast

Advertisements
Track Severe Weather on mobile